Airfield :
LOGIN :

Register | Disclaimer

   EN    FR    IT 

 










Legend :    VFR   Marginal VFR   IFR   Intensive IFR   Very Intensive IFR
Visi :
Ceiling :
>= 8 km
>= 3000ft
5 to 8 km
1000 to 3000 ft
1500m to 5 km
500 to 1000 ft
800 to 1500m
200 to 500 ft
< 800m
< 200 ft
Symbols :   Thunderstorms  Fog  Heavy snow  Heavy precipitations  Wind > 20 kt
SIGMETs :     Misc.  Thunderstorms  Icing  Turbulence  Mountain Waves  Volcanic Ashes







- Airport Elevation : 1959 ft
- IATA code : HOQ


EDQM - Hof Plauen

CURRENT METAR :
  • 121120Z 02010KT 5000 -SN BKN006 OVC009 M00/M01 Q1021

EXPIRED METARs :
  • 121050Z 35005KT 300V030 5000 -SN BKN006 BKN009 OVC011 M00/M01 Q1021
  • 121020Z 34005KT 280V020 5000 -SN BKN005 BKN007 OVC010 M00/M01 Q1021
  • 120950Z 34005KT 290V020 6000 -SN BKN005 BKN011 OVC015 M00/M01 Q1021
  • 120920Z 35005KT 280V040 9999 -SN OVC005 M01/M02 Q1021
  • 120850Z 34004KT 300V020 9999 OVC006 M01/M02 Q1021

TAF TAF EDQM
Valid from the 12 at 12:00 until the 12 at 21:00 UTC


121100Z 1212/1221 35006KT 8000 BKN005
TEMPO 1212/1216 2000 -SN BR BKN004
No reported NOTAMs for that airfield.



MET'MAP, your aeronautical weather chart ! - Copyright ORBIFLY December 2007 - Disclaimer

ORBIFLY MET'MAP TEAM :

Programming & Development : Alexandra Zaïnal
Concept & Development : Baudouin d'Aumeries
Co-Development & Prog : Marc-Olivier Méhu
Technical & hardware support : Manuel Goepfert

Contact : metmap@orbifly.com




SOURCES & CREDITS :

   NOAA